sensor_id;sensor_type;location;lat;lon;timestamp;pressure;altitude;pressure_sealevel;temperature;humidity
42587;BME280;28216;53.362;-6.288;2023-03-16T00:02:05;99666.97;;;9.99;100.00
42587;BME280;28216;53.362;-6.288;2023-03-16T00:04:31;99662.91;;;9.97;100.00
42587;BME280;28216;53.362;-6.288;2023-03-16T00:07:01;99661.56;;;10.01;100.00
42587;BME280;28216;53.362;-6.288;2023-03-16T00:09:29;99657.31;;;10.00;100.00
42587;BME280;28216;53.362;-6.288;2023-03-16T00:12:01;99652.69;;;10.02;100.00
42587;BME280;28216;53.362;-6.288;2023-03-16T00:14:28;99646.66;;;10.01;100.00
42587;BME280;28216;53.362;-6.288;2023-03-16T00:16:53;99646.66;;;10.01;100.00
42587;BME280;28216;53.362;-6.288;2023-03-16T00:19:19;99649.91;;;10.03;100.00
42587;BME280;28216;53.362;-6.288;2023-03-16T00:21:51;99646.47;;;10.03;100.00
42587;BME280;28216;53.362;-6.288;2023-03-16T00:24:19;99651.69;;;10.03;100.00
42587;BME280;28216;53.362;-6.288;2023-03-16T00:26:46;99652.69;;;10.02;100.00
42587;BME280;28216;53.362;-6.288;2023-03-16T00:29:12;99644.84;;;10.02;100.00
42587;BME280;28216;53.362;-6.288;2023-03-16T00:31:38;99639.41;;;10.03;100.00
42587;BME280;28216;53.362;-6.288;2023-03-16T00:34:04;99634.19;;;10.03;100.00
42587;BME280;28216;53.362;-6.288;2023-03-16T00:36:29;99638.59;;;10.03;100.00
42587;BME280;28216;53.362;-6.288;2023-03-16T00:38:58;99633.38;;;10.03;100.00
42587;BME280;28216;53.362;-6.288;2023-03-16T00:41:23;99624.53;;;10.04;100.00
42587;BME280;28216;53.362;-6.288;2023-03-16T00:43:49;99634.00;;;10.05;100.00
42587;BME280;28216;53.362;-6.288;2023-03-16T00:46:16;99624.53;;;10.04;100.00
42587;BME280;28216;53.362;-6.288;2023-03-16T00:48:44;99624.16;;;10.07;100.00
42587;BME280;28216;53.362;-6.288;2023-03-16T00:51:12;99612.25;;;10.04;100.00
42587;BME280;28216;53.362;-6.288;2023-03-16T00:53:41;99612.88;;;10.06;100.00
42587;BME280;28216;53.362;-6.288;2023-03-16T00:56:10;99616.94;;;10.09;100.00
42587;BME280;28216;53.362;-6.288;2023-03-16T00:58:38;99605.28;;;10.11;100.00
42587;BME280;28216;53.362;-6.288;2023-03-16T01:01:05;99610.50;;;10.11;100.00
42587;BME280;28216;53.362;-6.288;2023-03-16T01:03:32;99607.06;;;10.11;100.00
42587;BME280;28216;53.362;-6.288;2023-03-16T01:06:03;99608.97;;;10.17;100.00
42587;BME280;28216;53.362;-6.288;2023-03-16T01:08:30;99594.06;;;10.17;100.00
42587;BME280;28216;53.362;-6.288;2023-03-16T01:11:04;99588.00;;;10.17;100.00
42587;BME280;28216;53.362;-6.288;2023-03-16T01:13:30;99589.63;;;10.18;100.00
42587;BME280;28216;53.362;-6.288;2023-03-16T01:15:57;99589.63;;;10.18;100.00
42587;BME280;28216;53.362;-6.288;2023-03-16T01:18:23;99586.66;;;10.21;100.00
42587;BME280;28216;53.362;-6.288;2023-03-16T01:20:49;99580.63;;;10.21;100.00
42587;BME280;28216;53.362;-6.288;2023-03-16T01:23:20;99578.81;;;10.21;100.00
42587;BME280;28216;53.362;-6.288;2023-03-16T01:25:45;99580.63;;;10.21;100.00
42587;BME280;28216;53.362;-6.288;2023-03-16T01:28:29;99581.59;;;10.19;100.00
42587;BME280;28216;53.362;-6.288;2023-03-16T01:30:59;99576.34;;;10.19;100.00
42587;BME280;28216;53.362;-6.288;2023-03-16T01:33:27;99573.38;;;10.23;100.00
42587;BME280;28216;53.362;-6.288;2023-03-16T01:35:54;99566.16;;;10.25;100.00
42587;BME280;28216;53.362;-6.288;2023-03-16T01:38:20;99562.91;;;10.23;100.00
42587;BME280;28216;53.362;-6.288;2023-03-16T01:40:47;99565.53;;;10.23;100.00
42587;BME280;28216;53.362;-6.288;2023-03-16T01:43:17;99564.25;;;10.18;100.00
42587;BME280;28216;53.362;-6.288;2023-03-16T01:48:37;99549.19;;;10.21;100.00
42587;BME280;28216;53.362;-6.288;2023-03-16T01:51:08;99549.19;;;10.21;100.00
42587;BME280;28216;53.362;-6.288;2023-03-16T01:53:37;99540.94;;;10.24;100.00
42587;BME280;28216;53.362;-6.288;2023-03-16T01:56:06;99536.53;;;10.24;100.00
42587;BME280;28216;53.362;-6.288;2023-03-16T01:58:34;99533.91;;;10.24;100.00
42587;BME280;28216;53.362;-6.288;2023-03-16T02:01:02;99533.72;;;10.26;100.00
42587;BME280;28216;53.362;-6.288;2023-03-16T02:03:29;99528.47;;;10.26;100.00
42587;BME280;28216;53.362;-6.288;2023-03-16T02:06:03;99536.16;;;10.27;100.00
42587;BME280;28216;53.362;-6.288;2023-03-16T02:08:31;99532.91;;;10.25;100.00
42587;BME280;28216;53.362;-6.288;2023-03-16T02:10:57;99529.72;;;10.30;100.00
42587;BME280;28216;53.362;-6.288;2023-03-16T02:13:24;99532.09;;;10.25;100.00
42587;BME280;28216;53.362;-6.288;2023-03-16T02:15:51;99524.69;;;10.28;100.00
42587;BME280;28216;53.362;-6.288;2023-03-16T02:18:18;99526.91;;;10.31;100.00
42587;BME280;28216;53.362;-6.288;2023-03-16T02:23:30;99520.88;;;10.31;100.00
42587;BME280;28216;53.362;-6.288;2023-03-16T02:28:48;99516.31;;;10.39;100.00
42587;BME280;28216;53.362;-6.288;2023-03-16T02:31:18;99507.84;;;10.37;100.00
42587;BME280;28216;53.362;-6.288;2023-03-16T02:33:45;99505.84;;;10.39;100.00
42587;BME280;28216;53.362;-6.288;2023-03-16T02:36:13;99504.41;;;10.37;100.00
42587;BME280;28216;53.362;-6.288;2023-03-16T02:38:42;99513.06;;;10.37;100.00
42587;BME280;28216;53.362;-6.288;2023-03-16T02:41:16;99498.34;;;10.36;100.00
42587;BME280;28216;53.362;-6.288;2023-03-16T02:43:51;99495.91;;;10.35;100.00
42587;BME280;28216;53.362;-6.288;2023-03-16T02:46:20;99485.53;;;10.41;100.00
42587;BME280;28216;53.362;-6.288;2023-03-16T02:49:25;99479.47;;;10.41;100.00
42587;BME280;28216;53.362;-6.288;2023-03-16T02:51:52;99481.81;;;10.36;100.00
42587;BME280;28216;53.362;-6.288;2023-03-16T02:54:17;99480.44;;;10.40;100.00
42587;BME280;28216;53.362;-6.288;2023-03-16T02:56:43;99482.25;;;10.39;100.00
42587;BME280;28216;53.362;-6.288;2023-03-16T02:59:08;99488.94;;;10.42;100.00
42587;BME280;28216;53.362;-6.288;2023-03-16T03:01:34;99488.31;;;10.40;100.00
42587;BME280;28216;53.362;-6.288;2023-03-16T03:04:01;99489.75;;;10.42;100.00
42587;BME280;28216;53.362;-6.288;2023-03-16T03:06:27;99486.69;;;10.39;100.00
42587;BME280;28216;53.362;-6.288;2023-03-16T03:08:53;99482.34;;;10.46;100.00
42587;BME280;28216;53.362;-6.288;2023-03-16T03:11:18;99472.22;;;10.43;100.00
42587;BME280;28216;53.362;-6.288;2023-03-16T03:13:45;99467.03;;;10.49;100.00
42587;BME280;28216;53.362;-6.288;2023-03-16T03:16:11;99478.72;;;10.47;100.00
42587;BME280;28216;53.362;-6.288;2023-03-16T03:18:37;99472.28;;;10.49;100.00
42587;BME280;28216;53.362;-6.288;2023-03-16T03:21:02;99468.47;;;10.52;100.00
42587;BME280;28216;53.362;-6.288;2023-03-16T03:23:28;99463.41;;;10.50;100.00
42587;BME280;28216;53.362;-6.288;2023-03-16T03:25:57;99458.59;;;10.54;100.00
42587;BME280;28216;53.362;-6.288;2023-03-16T03:28:23;99457.19;;;10.52;100.00
42587;BME280;28216;53.362;-6.288;2023-03-16T03:30:49;99450.50;;;10.49;100.00
42587;BME280;28216;53.362;-6.288;2023-03-16T03:33:16;99445.69;;;10.53;100.00
42587;BME280;28216;53.362;-6.288;2023-03-16T03:35:41;99451.56;;;10.55;100.00
42587;BME280;28216;53.362;-6.288;2023-03-16T03:38:10;99456.19;;;10.53;100.00
42587;BME280;28216;53.362;-6.288;2023-03-16T03:40:36;99442.69;;;10.56;100.00
42587;BME280;28216;53.362;-6.288;2023-03-16T03:43:03;99446.31;;;10.55;100.00
42587;BME280;28216;53.362;-6.288;2023-03-16T03:45:28;99437.69;;;10.61;100.00
42587;BME280;28216;53.362;-6.288;2023-03-16T03:47:54;99439.69;;;10.59;100.00
42587;BME280;28216;53.362;-6.288;2023-03-16T03:50:20;99444.94;;;10.59;100.00
42587;BME280;28216;53.362;-6.288;2023-03-16T03:52:46;99443.94;;;10.60;100.00
42587;BME280;28216;53.362;-6.288;2023-03-16T03:55:12;99432.44;;;10.61;100.00
42587;BME280;28216;53.362;-6.288;2023-03-16T03:57:37;99425.34;;;10.55;100.00
42587;BME280;28216;53.362;-6.288;2023-03-16T04:00:05;99425.81;;;10.65;100.00
42587;BME280;28216;53.362;-6.288;2023-03-16T04:02:36;99433.81;;;10.57;100.00
42587;BME280;28216;53.362;-6.288;2023-03-16T04:05:02;99430.44;;;10.63;100.00
42587;BME280;28216;53.362;-6.288;2023-03-16T04:07:28;99427.78;;;10.56;100.00
42587;BME280;28216;53.362;-6.288;2023-03-16T04:09:53;99428.16;;;10.53;100.00
42587;BME280;28216;53.362;-6.288;2023-03-16T04:12:19;99416.72;;;10.61;100.00
42587;BME280;28216;53.362;-6.288;2023-03-16T04:14:44;99409.25;;;10.58;100.00
42587;BME280;28216;53.362;-6.288;2023-03-16T04:17:10;99410.25;;;10.57;100.00
42587;BME280;28216;53.362;-6.288;2023-03-16T04:19:36;99403.63;;;10.61;100.00
42587;BME280;28216;53.362;-6.288;2023-03-16T04:22:02;99411.84;;;10.58;100.00
42587;BME280;28216;53.362;-6.288;2023-03-16T04:24:28;99406.63;;;10.58;100.00
42587;BME280;28216;53.362;-6.288;2023-03-16T04:26:53;99392.13;;;10.62;100.00
42587;BME280;28216;53.362;-6.288;2023-03-16T04:29:19;99391.50;;;10.60;100.00
42587;BME280;28216;53.362;-6.288;2023-03-16T04:31:45;99397.56;;;10.60;100.00
42587;BME280;28216;53.362;-6.288;2023-03-16T04:34:12;99395.56;;;10.62;100.00
42587;BME280;28216;53.362;-6.288;2023-03-16T04:36:37;99406.44;;;10.59;100.00
42587;BME280;28216;53.362;-6.288;2023-03-16T04:39:04;99401.22;;;10.66;100.00
42587;BME280;28216;53.362;-6.288;2023-03-16T04:41:30;99403.03;;;10.65;100.00
42587;BME280;28216;53.362;-6.288;2023-03-16T04:43:56;99392.31;;;10.60;100.00
42587;BME280;28216;53.362;-6.288;2023-03-16T04:46:22;99383.69;;;10.66;100.00
42587;BME280;28216;53.362;-6.288;2023-03-16T04:48:51;99376.41;;;10.62;100.00
42587;BME280;28216;53.362;-6.288;2023-03-16T04:51:16;99389.31;;;10.63;100.00
42587;BME280;28216;53.362;-6.288;2023-03-16T04:53:42;99392.50;;;10.59;100.00
42587;BME280;28216;53.362;-6.288;2023-03-16T04:56:09;99380.22;;;10.59;100.00
42587;BME280;28216;53.362;-6.288;2023-03-16T04:58:43;99369.56;;;10.67;100.00
42587;BME280;28216;53.362;-6.288;2023-03-16T05:01:08;99379.06;;;10.68;100.00
42587;BME280;28216;53.362;-6.288;2023-03-16T05:03:34;99370.16;;;10.63;100.00
42587;BME280;28216;53.362;-6.288;2023-03-16T05:05:59;99374.19;;;10.65;100.00
42587;BME280;28216;53.362;-6.288;2023-03-16T05:08:25;99372.38;;;10.66;100.00
42587;BME280;28216;53.362;-6.288;2023-03-16T05:10:50;99377.84;;;10.71;100.00
42587;BME280;28216;53.362;-6.288;2023-03-16T05:13:20;99383.31;;;10.69;100.00
42587;BME280;28216;53.362;-6.288;2023-03-16T05:15:45;99382.72;;;10.74;100.00
42587;BME280;28216;53.362;-6.288;2023-03-16T05:18:12;99392.78;;;10.70;100.00
42587;BME280;28216;53.362;-6.288;2023-03-16T05:20:37;99390.78;;;10.72;100.00
42587;BME280;28216;53.362;-6.288;2023-03-16T05:23:03;99384.53;;;10.73;100.00
42587;BME280;28216;53.362;-6.288;2023-03-16T05:25:28;99381.53;;;10.76;100.00
42587;BME280;28216;53.362;-6.288;2023-03-16T05:27:54;99382.31;;;10.77;100.00
42587;BME280;28216;53.362;-6.288;2023-03-16T05:30:21;99378.91;;;10.76;100.00
42587;BME280;28216;53.362;-6.288;2023-03-16T05:32:46;99382.91;;;10.72;100.00
42587;BME280;28216;53.362;-6.288;2023-03-16T05:35:12;99377.47;;;10.74;100.00
42587;BME280;28216;53.362;-6.288;2023-03-16T05:37:39;99369.19;;;10.70;100.00
42587;BME280;28216;53.362;-6.288;2023-03-16T05:40:06;99380.28;;;10.72;100.00
42587;BME280;28216;53.362;-6.288;2023-03-16T05:42:42;99371.63;;;10.72;100.00
42587;BME280;28216;53.362;-6.288;2023-03-16T05:45:08;99367.38;;;10.71;100.00
42587;BME280;28216;53.362;-6.288;2023-03-16T05:47:34;99362.31;;;10.69;100.00
42587;BME280;28216;53.362;-6.288;2023-03-16T05:50:05;99359.31;;;10.72;100.00
42587;BME280;28216;53.362;-6.288;2023-03-16T05:52:33;99359.72;;;10.69;100.00
42587;BME280;28216;53.362;-6.288;2023-03-16T05:54:59;99354.88;;;10.73;100.00
42587;BME280;28216;53.362;-6.288;2023-03-16T05:57:25;99356.88;;;10.71;100.00
42587;BME280;28216;53.362;-6.288;2023-03-16T05:59:50;99369.19;;;10.70;100.00
42587;BME280;28216;53.362;-6.288;2023-03-16T06:02:17;99370.63;;;10.73;100.00
42587;BME280;28216;53.362;-6.288;2023-03-16T06:04:42;99370.63;;;10.73;100.00
42587;BME280;28216;53.362;-6.288;2023-03-16T06:07:08;99365.72;;;10.63;100.00
42587;BME280;28216;53.362;-6.288;2023-03-16T06:09:34;99358.09;;;10.68;100.00
42587;BME280;28216;53.362;-6.288;2023-03-16T06:11:59;99352.66;;;10.70;100.00
42587;BME280;28216;53.362;-6.288;2023-03-16T06:14:25;99349.03;;;10.71;100.00
42587;BME280;28216;53.362;-6.288;2023-03-16T06:16:50;99339.53;;;10.70;100.00
42587;BME280;28216;53.362;-6.288;2023-03-16T06:19:16;99338.34;;;10.72;100.00
42587;BME280;28216;53.362;-6.288;2023-03-16T06:21:41;99330.66;;;10.64;100.00
42587;BME280;28216;53.362;-6.288;2023-03-16T06:24:07;99326.03;;;10.73;100.00
42587;BME280;28216;53.362;-6.288;2023-03-16T06:26:34;99319.81;;;10.74;100.00
42587;BME280;28216;53.362;-6.288;2023-03-16T06:29:00;99306.50;;;10.75;100.00
42587;BME280;28216;53.362;-6.288;2023-03-16T06:31:26;99297.22;;;10.73;100.00
42587;BME280;28216;53.362;-6.288;2023-03-16T06:33:51;99294.97;;;10.70;100.00
42587;BME280;28216;53.362;-6.288;2023-03-16T06:36:17;99285.09;;;10.72;100.00
42587;BME280;28216;53.362;-6.288;2023-03-16T06:38:42;99290.75;;;10.69;100.00
42587;BME280;28216;53.362;-6.288;2023-03-16T06:41:08;99302.44;;;10.73;100.00
42587;BME280;28216;53.362;-6.288;2023-03-16T06:43:34;99324.63;;;10.70;100.00
42587;BME280;28216;53.362;-6.288;2023-03-16T06:45:59;99323.44;;;10.73;100.00
42587;BME280;28216;53.362;-6.288;2023-03-16T06:48:39;99333.72;;;10.74;100.00
42587;BME280;28216;53.362;-6.288;2023-03-16T06:53:41;99333.53;;;10.76;100.00
42587;BME280;28216;53.362;-6.288;2023-03-16T06:56:08;99317.59;;;10.77;100.00
42587;BME280;28216;53.362;-6.288;2023-03-16T06:58:41;99328.91;;;10.78;100.00
42587;BME280;28216;53.362;-6.288;2023-03-16T07:01:09;99342.22;;;10.83;100.00
42587;BME280;28216;53.362;-6.288;2023-03-16T07:06:50;99346.88;;;10.88;100.00
42587;BME280;28216;53.362;-6.288;2023-03-16T07:09:18;99319.63;;;10.82;100.00
42587;BME280;28216;53.362;-6.288;2023-03-16T07:11:44;99322.66;;;10.86;100.00
42587;BME280;28216;53.362;-6.288;2023-03-16T07:14:09;99330.91;;;10.76;100.00
42587;BME280;28216;53.362;-6.288;2023-03-16T07:16:36;99323.84;;;10.76;100.00
42587;BME280;28216;53.362;-6.288;2023-03-16T07:19:04;99307.50;;;10.74;100.00
42587;BME280;28216;53.362;-6.288;2023-03-16T07:21:30;99316.16;;;10.75;100.00
42587;BME280;28216;53.362;-6.288;2023-03-16T07:24:03;99310.94;;;10.75;100.00
42587;BME280;28216;53.362;-6.288;2023-03-16T07:26:38;99315.16;;;10.76;100.00
42587;BME280;28216;53.362;-6.288;2023-03-16T07:29:07;99318.22;;;10.79;100.00
42587;BME280;28216;53.362;-6.288;2023-03-16T07:31:44;99311.75;;;10.75;100.00
42587;BME280;28216;53.362;-6.288;2023-03-16T07:34:14;99318.63;;;10.83;100.00
42587;BME280;28216;53.362;-6.288;2023-03-16T07:36:43;99320.25;;;10.84;100.00
42587;BME280;28216;53.362;-6.288;2023-03-16T07:39:09;99321.84;;;10.78;100.00
42587;BME280;28216;53.362;-6.288;2023-03-16T07:41:38;99326.72;;;10.88;100.00
42587;BME280;28216;53.362;-6.288;2023-03-16T07:44:05;99331.16;;;10.88;100.00
42587;BME280;28216;53.362;-6.288;2023-03-16T07:46:52;99334.78;;;10.87;100.00
42587;BME280;28216;53.362;-6.288;2023-03-16T07:49:20;99332.97;;;10.94;100.00
42587;BME280;28216;53.362;-6.288;2023-03-16T07:51:47;99331.78;;;10.96;100.00
42587;BME280;28216;53.362;-6.288;2023-03-16T07:54:12;99333.78;;;10.94;100.00
42587;BME280;28216;53.362;-6.288;2023-03-16T07:56:38;99332.19;;;10.93;100.00
42587;BME280;28216;53.362;-6.288;2023-03-16T07:59:04;99334.41;;;10.96;100.00
42587;BME280;28216;53.362;-6.288;2023-03-16T08:01:29;99320.50;;;10.96;100.00
42587;BME280;28216;53.362;-6.288;2023-03-16T08:03:55;99332.59;;;10.97;100.00
42587;BME280;28216;53.362;-6.288;2023-03-16T08:06:20;99345.72;;;11.03;100.00
42587;BME280;28216;53.362;-6.288;2023-03-16T08:08:51;99340.06;;;11.00;100.00
42587;BME280;28216;53.362;-6.288;2023-03-16T08:11:17;99338.47;;;11.05;100.00
42587;BME280;28216;53.362;-6.288;2023-03-16T08:13:49;99338.47;;;11.05;100.00
42587;BME280;28216;53.362;-6.288;2023-03-16T08:16:19;99335.50;;;11.15;100.00
42587;BME280;28216;53.362;-6.288;2023-03-16T08:22:25;99330.50;;;11.27;100.00
42587;BME280;28216;53.362;-6.288;2023-03-16T08:24:54;99322.84;;;11.45;100.00
42587;BME280;28216;53.362;-6.288;2023-03-16T08:27:19;99318.81;;;11.56;100.00
42587;BME280;28216;53.362;-6.288;2023-03-16T08:29:50;99316.22;;;11.62;100.00
42587;BME280;28216;53.362;-6.288;2023-03-16T08:32:16;99323.50;;;11.80;100.00
42587;BME280;28216;53.362;-6.288;2023-03-16T08:34:42;99319.88;;;11.81;100.00
42587;BME280;28216;53.362;-6.288;2023-03-16T08:37:07;99311.63;;;11.91;100.00
42587;BME280;28216;53.362;-6.288;2023-03-16T08:39:33;99317.88;;;11.96;100.00
42587;BME280;28216;53.362;-6.288;2023-03-16T08:42:00;99319.09;;;12.00;100.00
42587;BME280;28216;53.362;-6.288;2023-03-16T08:44:25;99324.13;;;12.08;100.00
42587;BME280;28216;53.362;-6.288;2023-03-16T08:46:51;99323.50;;;12.26;100.00
42587;BME280;28216;53.362;-6.288;2023-03-16T08:49:17;99317.63;;;12.37;100.00
42587;BME280;28216;53.362;-6.288;2023-03-16T08:51:45;99310.75;;;12.36;100.00
42587;BME280;28216;53.362;-6.288;2023-03-16T08:54:12;99312.16;;;12.32;100.00
42587;BME280;28216;53.362;-6.288;2023-03-16T08:56:39;99303.66;;;12.37;100.00
42587;BME280;28216;53.362;-6.288;2023-03-16T08:59:05;99299.59;;;12.41;100.00
42587;BME280;28216;53.362;-6.288;2023-03-16T09:01:30;99304.09;;;12.27;100.00
42587;BME280;28216;53.362;-6.288;2023-03-16T09:03:58;99310.16;;;12.28;100.00
42587;BME280;28216;53.362;-6.288;2023-03-16T09:06:25;99295.00;;;12.30;100.00
42587;BME280;28216;53.362;-6.288;2023-03-16T09:08:51;99292.69;;;12.53;100.00
42587;BME280;28216;53.362;-6.288;2023-03-16T09:11:18;99296.13;;;12.54;100.00
42587;BME280;28216;53.362;-6.288;2023-03-16T09:13:44;99299.91;;;12.78;100.00
42587;BME280;28216;53.362;-6.288;2023-03-16T09:16:11;99302.91;;;12.88;100.00
42587;BME280;28216;53.362;-6.288;2023-03-16T09:18:37;99296.41;;;12.90;100.00
42587;BME280;28216;53.362;-6.288;2023-03-16T09:21:08;99298.59;;;13.00;100.00
42587;BME280;28216;53.362;-6.288;2023-03-16T09:23:37;99299.59;;;12.99;100.00
42587;BME280;28216;53.362;-6.288;2023-03-16T09:26:04;99286.91;;;12.89;100.00
42587;BME280;28216;53.362;-6.288;2023-03-16T09:28:35;99290.53;;;12.95;100.00
42587;BME280;28216;53.362;-6.288;2023-03-16T09:31:01;99293.16;;;12.95;100.00
42587;BME280;28216;53.362;-6.288;2023-03-16T09:33:28;99298.72;;;13.18;100.00
42587;BME280;28216;53.362;-6.288;2023-03-16T09:35:54;99295.41;;;13.29;100.00
42587;BME280;28216;53.362;-6.288;2023-03-16T09:38:22;99287.72;;;13.28;100.00
42587;BME280;28216;53.362;-6.288;2023-03-16T09:40:59;99295.41;;;13.29;100.00
42587;BME280;28216;53.362;-6.288;2023-03-16T09:48:34;99298.78;;;13.43;100.00
42587;BME280;28216;53.362;-6.288;2023-03-16T09:51:07;99300.06;;;13.27;100.00
42587;BME280;28216;53.362;-6.288;2023-03-16T09:53:42;99310.56;;;13.41;100.00
42587;BME280;28216;53.362;-6.288;2023-03-16T09:56:17;99314.25;;;13.26;100.00
42587;BME280;28216;53.362;-6.288;2023-03-16T09:58:45;99314.41;;;13.38;100.00
42587;BME280;28216;53.362;-6.288;2023-03-16T10:04:40;99316.06;;;13.64;100.00
42587;BME280;28216;53.362;-6.288;2023-03-16T10:18:56;99306.00;;;14.04;100.00
42587;BME280;28216;53.362;-6.288;2023-03-16T10:21:37;99322.75;;;14.10;100.00
42587;BME280;28216;53.362;-6.288;2023-03-16T10:27:18;99319.72;;;13.88;100.00
42587;BME280;28216;53.362;-6.288;2023-03-16T10:29:47;99313.31;;;14.02;100.00
42587;BME280;28216;53.362;-6.288;2023-03-16T10:32:16;99309.81;;;13.83;100.00
42587;BME280;28216;53.362;-6.288;2023-03-16T10:34:47;99300.03;;;13.90;100.00
42587;BME280;28216;53.362;-6.288;2023-03-16T10:37:17;99292.84;;;13.54;100.00
42587;BME280;28216;53.362;-6.288;2023-03-16T10:39:42;99306.28;;;13.71;100.00
42587;BME280;28216;53.362;-6.288;2023-03-16T10:42:17;99295.31;;;13.74;100.00
42587;BME280;28216;53.362;-6.288;2023-03-16T10:44:43;99304.34;;;13.85;100.00
42587;BME280;28216;53.362;-6.288;2023-03-16T10:47:22;99291.88;;;13.74;100.00
42587;BME280;28216;53.362;-6.288;2023-03-16T10:49:49;99294.97;;;13.89;100.00
42587;BME280;28216;53.362;-6.288;2023-03-16T10:55:08;99311.03;;;14.06;100.00
42587;BME280;28216;53.362;-6.288;2023-03-16T10:57:39;99302.31;;;14.05;100.00
42587;BME280;28216;53.362;-6.288;2023-03-16T11:00:07;99300.91;;;14.27;100.00
42587;BME280;28216;53.362;-6.288;2023-03-16T11:02:34;99299.91;;;14.28;100.00
42587;BME280;28216;53.362;-6.288;2023-03-16T11:07:56;99295.97;;;14.74;100.00
42587;BME280;28216;53.362;-6.288;2023-03-16T11:11:07;99304.31;;;14.71;100.00
42587;BME280;28216;53.362;-6.288;2023-03-16T11:13:35;99309.44;;;14.84;100.00
42587;BME280;28216;53.362;-6.288;2023-03-16T11:16:06;99307.81;;;14.83;100.00
42587;BME280;28216;53.362;-6.288;2023-03-16T11:18:46;99312.69;;;14.68;100.00
42587;BME280;28216;53.362;-6.288;2023-03-16T11:21:37;99316.94;;;14.51;100.00
42587;BME280;28216;53.362;-6.288;2023-03-16T11:30:48;99293.13;;;14.57;100.00
42587;BME280;28216;53.362;-6.288;2023-03-16T11:33:20;99303.88;;;14.74;100.00
42587;BME280;28216;53.362;-6.288;2023-03-16T11:42:13;99317.16;;;14.68;100.00
42587;BME280;28216;53.362;-6.288;2023-03-16T11:44:46;99323.09;;;14.63;100.00
42587;BME280;28216;53.362;-6.288;2023-03-16T11:59:16;99297.00;;;14.73;100.00
42587;BME280;28216;53.362;-6.288;2023-03-16T12:10:25;99283.75;;;15.10;100.00
42587;BME280;28216;53.362;-6.288;2023-03-16T12:13:15;99282.00;;;15.04;100.00
42587;BME280;28216;53.362;-6.288;2023-03-16T12:15:47;99286.78;;;15.25;100.00
42587;BME280;28216;53.362;-6.288;2023-03-16T12:18:20;99283.19;;;15.19;100.00
42587;BME280;28216;53.362;-6.288;2023-03-16T12:20:55;99282.28;;;15.14;100.00
42587;BME280;28216;53.362;-6.288;2023-03-16T12:23:38;99284.16;;;14.95;100.00
42587;BME280;28216;53.362;-6.288;2023-03-16T12:26:05;99285.19;;;14.94;100.00
42587;BME280;28216;53.362;-6.288;2023-03-16T12:28:31;99286.69;;;15.02;100.00
42587;BME280;28216;53.362;-6.288;2023-03-16T12:33:48;99285.53;;;14.98;100.00
42587;BME280;28216;53.362;-6.288;2023-03-16T12:39:29;99282.34;;;15.07;100.00
42587;BME280;28216;53.362;-6.288;2023-03-16T12:49:50;99298.56;;;15.11;100.00
42587;BME280;28216;53.362;-6.288;2023-03-16T12:52:18;99298.91;;;15.14;100.00
42587;BME280;28216;53.362;-6.288;2023-03-16T13:00:04;99284.56;;;15.10;100.00
42587;BME280;28216;53.362;-6.288;2023-03-16T13:02:35;99284.28;;;15.00;100.00
42587;BME280;28216;53.362;-6.288;2023-03-16T13:07:50;99289.13;;;15.03;100.00
42587;BME280;28216;53.362;-6.288;2023-03-16T13:10:17;99301.16;;;14.99;100.00
42587;BME280;28216;53.362;-6.288;2023-03-16T13:12:46;99299.31;;;15.00;100.00
42587;BME280;28216;53.362;-6.288;2023-03-16T13:17:45;99299.13;;;15.13;100.00
42587;BME280;28216;53.362;-6.288;2023-03-16T13:22:45;99287.16;;;14.99;100.00
42587;BME280;28216;53.362;-6.288;2023-03-16T13:27:54;99294.00;;;15.18;100.00
42587;BME280;28216;53.362;-6.288;2023-03-16T13:30:24;99300.06;;;15.18;100.00
42587;BME280;28216;53.362;-6.288;2023-03-16T13:32:54;99302.97;;;15.29;100.00
42587;BME280;28216;53.362;-6.288;2023-03-16T13:35:25;99293.94;;;15.36;100.00
42587;BME280;28216;53.362;-6.288;2023-03-16T13:37:52;99286.44;;;15.33;100.00
42587;BME280;28216;53.362;-6.288;2023-03-16T13:40:25;99295.19;;;15.34;100.00
42587;BME280;28216;53.362;-6.288;2023-03-16T13:42:51;99279.91;;;15.36;100.00
42587;BME280;28216;53.362;-6.288;2023-03-16T13:45:29;99279.09;;;15.23;100.00
42587;BME280;28216;53.362;-6.288;2023-03-16T13:47:57;99280.97;;;15.46;100.00
42587;BME280;28216;53.362;-6.288;2023-03-16T13:50:23;99288.44;;;15.49;100.00
42587;BME280;28216;53.362;-6.288;2023-03-16T13:53:01;99279.81;;;15.42;100.00
42587;BME280;28216;53.362;-6.288;2023-03-16T13:55:33;99283.34;;;15.24;100.00
42587;BME280;28216;53.362;-6.288;2023-03-16T13:57:59;99273.94;;;15.29;100.00
42587;BME280;28216;53.362;-6.288;2023-03-16T14:00:30;99279.78;;;15.31;100.00
42587;BME280;28216;53.362;-6.288;2023-03-16T14:02:58;99264.88;;;15.36;100.00
42587;BME280;28216;53.362;-6.288;2023-03-16T14:05:32;99267.63;;;15.30;100.00
42587;BME280;28216;53.362;-6.288;2023-03-16T14:07:59;99277.00;;;15.14;100.00
42587;BME280;28216;53.362;-6.288;2023-03-16T14:10:34;99268.50;;;15.12;100.00
42587;BME280;28216;53.362;-6.288;2023-03-16T14:13:20;99267.31;;;15.08;100.00
42587;BME280;28216;53.362;-6.288;2023-03-16T14:15:48;99265.97;;;15.17;100.00
42587;BME280;28216;53.362;-6.288;2023-03-16T14:18:22;99249.88;;;15.07;100.00
42587;BME280;28216;53.362;-6.288;2023-03-16T14:20:55;99252.75;;;15.05;100.00
42587;BME280;28216;53.362;-6.288;2023-03-16T14:23:27;99256.53;;;15.09;100.00
42587;BME280;28216;53.362;-6.288;2023-03-16T14:25:55;99245.78;;;15.22;100.00
42587;BME280;28216;53.362;-6.288;2023-03-16T14:28:29;99250.50;;;15.20;100.00
42587;BME280;28216;53.362;-6.288;2023-03-16T14:31:18;99245.88;;;15.16;100.00
42587;BME280;28216;53.362;-6.288;2023-03-16T14:33:45;99247.50;;;15.17;100.00
42587;BME280;28216;53.362;-6.288;2023-03-16T14:36:13;99254.06;;;15.26;100.00
42587;BME280;28216;53.362;-6.288;2023-03-16T14:38:48;99252.91;;;15.22;100.00